Time;durP1;ratioP1;P1;durP2;ratioP2;P2;SDS_P1;SDS_P2;PMS_P1;PMS_P2;Temp;Humidity;BMP_temperature;BMP_pressure;BME280_temperature;BME280_humidity;BME280_pressure;Samples;Min_cycle;Max_cycle;Signal;HPM_P1;HPM_P2
2023/11/19 00:01:42;;;;;;;20.35;8.52;;;;;;;;;;5015856;28;20052;-58
2023/11/19 00:04:08;;;;;;;15.15;6.63;;;;;;;;;;5011135;28;20058;-58
2023/11/19 00:06:34;;;;;;;14.10;5.82;;;;;;;;;;5010747;28;20411;-58
2023/11/19 00:09:01;;;;;;;11.75;5.57;;;;;;;;;;5013725;28;20439;-58
2023/11/19 00:11:27;;;;;;;10.93;5.38;;;;;;;;;;5011752;28;20431;-58
2023/11/19 00:13:53;;;;;;;11.27;5.60;;;;;;;;;;5011153;28;20057;-57
2023/11/19 00:16:19;;;;;;;10.25;5.18;;;;;;;;;;5003894;28;20054;-58
2023/11/19 00:18:45;;;;;;;8.93;4.53;;;;;;;;;;5012987;28;20422;-58
2023/11/19 00:21:11;;;;;;;7.82;3.70;;;;;;;;;;5012231;28;20057;-59
2023/11/19 00:23:38;;;;;;;6.70;3.22;;;;;;;;;;5010749;28;20050;-59
2023/11/19 00:26:05;;;;;;;6.53;2.92;;;;;;;;;;5009463;28;20414;-59
2023/11/19 00:28:33;;;;;;;3.67;2.30;;;;;;;;;;5013356;28;20688;-58
2023/11/19 00:30:59;;;;;;;3.92;2.00;;;;;;;;;;4991555;28;20614;-58
2023/11/19 00:33:26;;;;;;;3.58;1.90;;;;;;;;;;4996984;28;20048;-58
2023/11/19 00:35:52;;;;;;;4.40;2.03;;;;;;;;;;4989774;28;20053;-58
2023/11/19 00:38:18;;;;;;;2.20;1.40;;;;;;;;;;5023683;28;20034;-58
2023/11/19 00:40:44;;;;;;;2.55;1.40;;;;;;;;;;5028310;28;20050;-59
2023/11/19 00:43:10;;;;;;;1.98;1.48;;;;;;;;;;5024705;28;20061;-58
2023/11/19 00:45:37;;;;;;;2.88;1.42;;;;;;;;;;4991956;28;20044;-58
2023/11/19 00:48:03;;;;;;;2.85;1.70;;;;;;;;;;4991752;28;20053;-57
2023/11/19 00:50:31;;;;;;;1.25;1.10;;;;;;;;;;4991445;28;20037;-58
2023/11/19 00:52:57;;;;;;;0.82;0.68;;;;;;;;;;5008654;28;20057;-58
2023/11/19 00:55:23;;;;;;;1.05;0.90;;;;;;;;;;5009812;28;20053;-57
2023/11/19 00:57:49;;;;;;;1.00;0.90;;;;;;;;;;5011070;28;20048;-57
2023/11/19 01:00:19;;;;;;;0.85;0.82;;;;;;;;;;5010651;28;20041;-58
2023/11/19 01:02:45;;;;;;;1.55;0.90;;;;;;;;;;4999266;28;20046;-58
2023/11/19 01:05:14;;;;;;;1.20;0.80;;;;;;;;;;4993966;28;20042;-58
2023/11/19 01:07:41;;;;;;;0.75;0.70;;;;;;;;;;5012355;28;20049;-58
2023/11/19 01:10:08;;;;;;;1.55;0.60;;;;;;;;;;5006943;28;20044;-58
2023/11/19 01:12:34;;;;;;;2.40;1.00;;;;;;;;;;5012552;28;20026;-58
2023/11/19 01:15:01;;;;;;;0.82;0.65;;;;;;;;;;5008180;28;20073;-58
2023/11/19 01:17:31;;;;;;;0.50;0.50;;;;;;;;;;5007377;28;20041;-58
2023/11/19 01:19:57;;;;;;;1.27;0.80;;;;;;;;;;5012582;28;20629;-58
2023/11/19 01:22:23;;;;;;;0.82;0.70;;;;;;;;;;5008127;28;20431;-57
2023/11/19 01:24:49;;;;;;;0.82;0.60;;;;;;;;;;5007466;28;20526;-57
2023/11/19 01:27:16;;;;;;;1.38;0.68;;;;;;;;;;5008538;28;20026;-56
2023/11/19 01:29:43;;;;;;;0.70;0.60;;;;;;;;;;5008827;28;20422;-58
2023/11/19 01:32:09;;;;;;;0.60;0.60;;;;;;;;;;5006038;28;20033;-58
2023/11/19 01:34:35;;;;;;;1.73;0.50;;;;;;;;;;5008985;28;20045;-57
2023/11/19 01:37:01;;;;;;;0.60;0.50;;;;;;;;;;5008147;28;20030;-57
2023/11/19 01:39:28;;;;;;;1.95;0.43;;;;;;;;;;4991448;28;20403;-57
2023/11/19 01:41:54;;;;;;;0.85;0.70;;;;;;;;;;5007157;28;20415;-58
2023/11/19 01:44:20;;;;;;;0.40;0.40;;;;;;;;;;4991770;28;20060;-57
2023/11/19 01:46:49;;;;;;;0.65;0.50;;;;;;;;;;5009099;28;20049;-56
2023/11/19 01:49:18;;;;;;;0.43;0.43;;;;;;;;;;5011669;28;20054;-56
2023/11/19 01:51:45;;;;;;;0.95;0.47;;;;;;;;;;5007238;28;20034;-55
2023/11/19 01:54:12;;;;;;;0.50;0.50;;;;;;;;;;5007519;28;20030;-56
2023/11/19 01:56:40;;;;;;;0.50;0.50;;;;;;;;;;5012417;28;20049;-57
2023/11/19 01:59:09;;;;;;;0.47;0.30;;;;;;;;;;4989501;28;20068;-57
2023/11/19 02:01:39;;;;;;;0.77;0.40;;;;;;;;;;5021918;28;20038;-55
2023/11/19 02:04:08;;;;;;;0.57;0.40;;;;;;;;;;5008375;28;20291;-56
2023/11/19 02:06:38;;;;;;;0.80;0.40;;;;;;;;;;4991337;28;20045;-55
2023/11/19 02:09:07;;;;;;;0.45;0.40;;;;;;;;;;5008692;28;20056;-57
2023/11/19 02:11:34;;;;;;;0.88;0.30;;;;;;;;;;4989278;28;20663;-57
2023/11/19 02:14:02;;;;;;;0.30;0.30;;;;;;;;;;5013298;28;20417;-56
2023/11/19 02:16:28;;;;;;;0.43;0.35;;;;;;;;;;5006678;28;20041;-58
2023/11/19 02:18:54;;;;;;;0.88;0.40;;;;;;;;;;5007595;28;20052;-57
2023/11/19 02:21:20;;;;;;;0.40;0.40;;;;;;;;;;4989934;28;20041;-58
2023/11/19 02:23:47;;;;;;;0.40;0.40;;;;;;;;;;4996715;28;20042;-57
2023/11/19 02:26:26;;;;;;;0.52;0.40;;;;;;;;;;5006231;28;20053;-57
2023/11/19 02:28:52;;;;;;;0.63;0.40;;;;;;;;;;4989990;28;20034;-57
2023/11/19 02:31:19;;;;;;;0.20;0.20;;;;;;;;;;4999346;28;20502;-57
2023/11/19 02:33:45;;;;;;;0.55;0.40;;;;;;;;;;5018967;28;20379;-56
2023/11/19 02:36:11;;;;;;;0.30;0.30;;;;;;;;;;5004540;28;20038;-58
2023/11/19 02:38:37;;;;;;;1.10;0.30;;;;;;;;;;5009591;28;20034;-58
2023/11/19 02:41:07;;;;;;;0.30;0.30;;;;;;;;;;5026220;28;20040;-57
2023/11/19 02:43:33;;;;;;;0.30;0.30;;;;;;;;;;5015921;28;20038;-57
2023/11/19 02:46:07;;;;;;;0.40;0.40;;;;;;;;;;5009334;28;20049;-58
2023/11/19 02:48:37;;;;;;;0.40;0.40;;;;;;;;;;5009930;28;20045;-57
2023/11/19 02:51:04;;;;;;;0.47;0.35;;;;;;;;;;5010012;28;20041;-57
2023/11/19 02:53:30;;;;;;;1.70;0.50;;;;;;;;;;5012095;28;20049;-57
2023/11/19 02:56:09;;;;;;;0.40;0.40;;;;;;;;;;5010907;28;20520;-58
2023/11/19 02:58:35;;;;;;;0.40;0.38;;;;;;;;;;5010130;28;20441;-58
2023/11/19 03:01:10;;;;;;;1.60;0.50;;;;;;;;;;5009609;28;20021;-58
2023/11/19 03:03:40;;;;;;;0.75;0.38;;;;;;;;;;4993476;28;20129;-58
2023/11/19 03:06:09;;;;;;;0.40;0.40;;;;;;;;;;5009463;28;20030;-58
2023/11/19 03:08:35;;;;;;;1.08;0.50;;;;;;;;;;5010864;28;20034;-58
2023/11/19 03:11:02;;;;;;;0.43;0.43;;;;;;;;;;4991401;28;20059;-57
2023/11/19 03:13:28;;;;;;;1.00;0.40;;;;;;;;;;5012467;28;20033;-59
2023/11/19 03:15:54;;;;;;;0.50;0.50;;;;;;;;;;5010825;28;20044;-57
2023/11/19 03:18:20;;;;;;;1.02;0.40;;;;;;;;;;5024772;28;20042;-58
2023/11/19 03:20:47;;;;;;;0.30;0.30;;;;;;;;;;5012251;28;20052;-58
2023/11/19 03:23:14;;;;;;;0.40;0.40;;;;;;;;;;4993249;28;20065;-57
2023/11/19 03:25:40;;;;;;;0.50;0.50;;;;;;;;;;5008566;28;20407;-57
2023/11/19 03:28:06;;;;;;;0.50;0.50;;;;;;;;;;5012573;28;20033;-58
2023/11/19 03:30:32;;;;;;;0.47;0.40;;;;;;;;;;4992867;28;20435;-59
2023/11/19 03:32:59;;;;;;;0.40;0.40;;;;;;;;;;5009618;28;20038;-59
2023/11/19 03:35:27;;;;;;;0.52;0.43;;;;;;;;;;5009674;28;20431;-58
2023/11/19 03:37:53;;;;;;;1.70;0.40;;;;;;;;;;5010516;28;20045;-59
2023/11/19 03:40:20;;;;;;;0.47;0.47;;;;;;;;;;5014443;28;20054;-59
2023/11/19 03:42:46;;;;;;;0.50;0.50;;;;;;;;;;5010742;28;20042;-58
2023/11/19 03:45:12;;;;;;;0.90;0.40;;;;;;;;;;4992016;28;20041;-58
2023/11/19 03:47:39;;;;;;;0.60;0.50;;;;;;;;;;5009544;28;20049;-57
2023/11/19 03:50:07;;;;;;;1.55;0.50;;;;;;;;;;5009464;28;20034;-57
2023/11/19 03:52:33;;;;;;;0.55;0.50;;;;;;;;;;5009501;28;20046;-58
2023/11/19 03:55:00;;;;;;;0.50;0.50;;;;;;;;;;4994365;28;20491;-58
2023/11/19 03:57:27;;;;;;;1.42;0.98;;;;;;;;;;5010777;28;20038;-58
2023/11/19 03:59:55;;;;;;;0.60;0.60;;;;;;;;;;5008561;28;20034;-58
2023/11/19 04:02:21;;;;;;;2.53;1.30;;;;;;;;;;4992361;28;20046;-58
2023/11/19 04:04:48;;;;;;;0.60;0.50;;;;;;;;;;5013691;28;20049;-58
2023/11/19 04:07:15;;;;;;;0.50;0.50;;;;;;;;;;5009395;28;20065;-58
2023/11/19 04:09:41;;;;;;;0.55;0.43;;;;;;;;;;5008770;28;20038;-58
2023/11/19 04:12:08;;;;;;;0.60;0.60;;;;;;;;;;5010947;28;20044;-58
2023/11/19 04:14:34;;;;;;;0.73;0.60;;;;;;;;;;5010009;28;20039;-58
2023/11/19 04:17:00;;;;;;;1.20;0.70;;;;;;;;;;5009338;28;20038;-58
2023/11/19 04:19:26;;;;;;;0.47;0.45;;;;;;;;;;5011897;28;20037;-57
2023/11/19 04:21:52;;;;;;;0.38;0.38;;;;;;;;;;4993304;28;20037;-57
2023/11/19 04:24:18;;;;;;;0.95;0.47;;;;;;;;;;5010265;28;20034;-59
2023/11/19 04:26:46;;;;;;;0.50;0.50;;;;;;;;;;5025965;28;20030;-57
2023/11/19 04:29:14;;;;;;;0.68;0.40;;;;;;;;;;5011232;28;20406;-58
2023/11/19 04:31:41;;;;;;;0.75;0.40;;;;;;;;;;5010461;28;20613;-58
2023/11/19 04:34:07;;;;;;;0.38;0.38;;;;;;;;;;5009888;28;20034;-58
2023/11/19 04:36:34;;;;;;;0.40;0.40;;;;;;;;;;5007904;28;20045;-58
2023/11/19 04:39:00;;;;;;;0.30;0.30;;;;;;;;;;5010511;28;20064;-59
2023/11/19 04:41:27;;;;;;;1.50;0.45;;;;;;;;;;5001928;28;20060;-58
2023/11/19 04:43:54;;;;;;;0.70;0.30;;;;;;;;;;5015817;28;20267;-57
2023/11/19 04:46:20;;;;;;;0.30;0.30;;;;;;;;;;5009930;28;20362;-59
2023/11/19 04:48:46;;;;;;;0.30;0.30;;;;;;;;;;5008577;28;20045;-58
2023/11/19 04:51:12;;;;;;;0.30;0.30;;;;;;;;;;5014316;28;20049;-58
2023/11/19 04:53:38;;;;;;;0.40;0.40;;;;;;;;;;5013404;28;20046;-57
2023/11/19 04:56:09;;;;;;;0.30;0.30;;;;;;;;;;5006787;28;20071;-59
2023/11/19 04:58:35;;;;;;;0.20;0.20;;;;;;;;;;5006864;28;20022;-59
2023/11/19 05:01:02;;;;;;;0.43;0.30;;;;;;;;;;5003821;28;20594;-58
2023/11/19 05:03:29;;;;;;;0.20;0.20;;;;;;;;;;5012439;28;20060;-57
2023/11/19 05:05:55;;;;;;;0.20;0.20;;;;;;;;;;5013560;28;20053;-57
2023/11/19 05:08:21;;;;;;;0.20;0.20;;;;;;;;;;5017127;28;20507;-58
2023/11/19 05:10:47;;;;;;;0.45;0.30;;;;;;;;;;5014280;28;20041;-58
2023/11/19 05:13:14;;;;;;;0.32;0.30;;;;;;;;;;5007164;28;20067;-57
2023/11/19 05:15:40;;;;;;;0.20;0.20;;;;;;;;;;5009038;28;20041;-58
2023/11/19 05:18:06;;;;;;;0.30;0.30;;;;;;;;;;5014461;28;20061;-58
2023/11/19 05:20:32;;;;;;;0.30;0.30;;;;;;;;;;5000739;28;20065;-58
2023/11/19 05:23:00;;;;;;;0.60;0.47;;;;;;;;;;5008989;28;20678;-57
2023/11/19 05:25:27;;;;;;;0.30;0.30;;;;;;;;;;5009397;28;20050;-58
2023/11/19 05:27:53;;;;;;;1.33;0.30;;;;;;;;;;5008248;28;20398;-59
2023/11/19 05:30:19;;;;;;;0.30;0.30;;;;;;;;;;4999235;28;20049;-58
2023/11/19 05:32:45;;;;;;;0.30;0.30;;;;;;;;;;5009697;28;20426;-58
2023/11/19 05:35:12;;;;;;;0.52;0.30;;;;;;;;;;5006605;28;20052;-58
2023/11/19 05:37:38;;;;;;;0.60;0.40;;;;;;;;;;5008694;28;20037;-57
2023/11/19 05:40:12;;;;;;;0.30;0.30;;;;;;;;;;5009331;28;20054;-58
2023/11/19 05:42:38;;;;;;;1.50;0.22;;;;;;;;;;5010002;28;20030;-56
2023/11/19 05:45:04;;;;;;;0.20;0.20;;;;;;;;;;5007743;28;20033;-57
2023/11/19 05:47:30;;;;;;;0.30;0.30;;;;;;;;;;5009152;28;20062;-60
2023/11/19 05:49:56;;;;;;;0.55;0.30;;;;;;;;;;5009336;28;20056;-59
2023/11/19 05:52:23;;;;;;;1.50;0.35;;;;;;;;;;5009446;28;20050;-59
2023/11/19 05:54:51;;;;;;;0.55;0.50;;;;;;;;;;5009430;28;20030;-59
2023/11/19 05:57:23;;;;;;;1.75;0.30;;;;;;;;;;5007452;28;20046;-58
2023/11/19 05:59:49;;;;;;;0.40;0.40;;;;;;;;;;5007509;28;20050;-58
2023/11/19 06:02:16;;;;;;;0.93;0.30;;;;;;;;;;5006713;28;20033;-58
2023/11/19 06:04:44;;;;;;;0.52;0.30;;;;;;;;;;5007088;28;20050;-58
2023/11/19 06:07:10;;;;;;;0.70;0.30;;;;;;;;;;5006586;28;20061;-58
2023/11/19 06:09:36;;;;;;;0.30;0.30;;;;;;;;;;5007620;28;20037;-59
2023/11/19 06:12:03;;;;;;;0.20;0.20;;;;;;;;;;5006447;28;20057;-59
2023/11/19 06:14:29;;;;;;;0.60;0.40;;;;;;;;;;5010350;28;20553;-59
2023/11/19 06:16:55;;;;;;;0.55;0.40;;;;;;;;;;5021383;28;20647;-57
2023/11/19 06:19:21;;;;;;;1.48;0.77;;;;;;;;;;5020822;28;20506;-58
2023/11/19 06:21:47;;;;;;;0.38;0.32;;;;;;;;;;5010311;28;20625;-58
2023/11/19 06:24:13;;;;;;;2.30;0.60;;;;;;;;;;5012965;28;20762;-58
2023/11/19 06:26:40;;;;;;;0.90;0.43;;;;;;;;;;5013780;28;20507;-58
2023/11/19 06:29:06;;;;;;;0.93;0.47;;;;;;;;;;5007769;28;20034;-58
2023/11/19 06:31:32;;;;;;;0.52;0.30;;;;;;;;;;5014451;28;20065;-59
2023/11/19 06:33:58;;;;;;;1.90;0.30;;;;;;;;;;5015882;28;20054;-59
2023/11/19 06:36:24;;;;;;;1.65;0.50;;;;;;;;;;5010270;28;20403;-58
2023/11/19 06:38:50;;;;;;;1.33;0.40;;;;;;;;;;5014294;28;20045;-57
2023/11/19 06:41:16;;;;;;;0.30;0.30;;;;;;;;;;5012346;28;20382;-57
2023/11/19 06:43:43;;;;;;;1.33;0.40;;;;;;;;;;5020060;28;20037;-57
2023/11/19 06:46:16;;;;;;;0.30;0.30;;;;;;;;;;5008497;28;20045;-58
2023/11/19 06:48:44;;;;;;;0.73;0.50;;;;;;;;;;5012901;28;20044;-57
2023/11/19 06:51:11;;;;;;;0.73;0.50;;;;;;;;;;5015949;28;20029;-57
2023/11/19 06:53:37;;;;;;;1.20;0.65;;;;;;;;;;5013307;28;20521;-58
2023/11/19 06:56:06;;;;;;;1.55;0.50;;;;;;;;;;5010297;28;20042;-59
2023/11/19 06:58:36;;;;;;;0.30;0.30;;;;;;;;;;5014698;28;20041;-57
2023/11/19 07:01:01;;;;;;;;;;;;;;;;;;5008816;28;20065;-57
2023/11/19 07:03:27;;;;;;;1.25;0.60;;;;;;;;;;5024215;28;19913;-58
2023/11/19 07:05:55;;;;;;;0.40;0.40;;;;;;;;;;5010489;28;20034;-58
2023/11/19 07:08:21;;;;;;;0.85;0.40;;;;;;;;;;5013547;28;20038;-59
2023/11/19 07:10:47;;;;;;;3.00;0.93;;;;;;;;;;5010733;28;20034;-57
2023/11/19 07:13:15;;;;;;;1.17;0.50;;;;;;;;;;5009684;28;20064;-57
2023/11/19 07:15:41;;;;;;;0.30;0.30;;;;;;;;;;5010984;28;20061;-58
2023/11/19 07:18:07;;;;;;;0.50;0.50;;;;;;;;;;5015257;28;20049;-58
2023/11/19 07:20:33;;;;;;;0.40;0.30;;;;;;;;;;5012521;28;20037;-58
2023/11/19 07:22:59;;;;;;;0.30;0.30;;;;;;;;;;5010522;28;20034;-58
2023/11/19 07:25:26;;;;;;;1.48;0.90;;;;;;;;;;5014386;28;20034;-58
2023/11/19 07:27:52;;;;;;;0.30;0.30;;;;;;;;;;5020951;28;20038;-59
2023/11/19 07:30:19;;;;;;;0.30;0.30;;;;;;;;;;5012379;28;20044;-59
2023/11/19 07:32:45;;;;;;;0.73;0.47;;;;;;;;;;5019231;28;20048;-58
2023/11/19 07:35:11;;;;;;;0.73;0.45;;;;;;;;;;5013468;28;20053;-59
2023/11/19 07:37:37;;;;;;;3.00;0.43;;;;;;;;;;5009674;28;20030;-58
2023/11/19 07:40:04;;;;;;;1.58;0.60;;;;;;;;;;5010207;28;20037;-57
2023/11/19 07:42:31;;;;;;;1.05;0.40;;;;;;;;;;5007529;28;20045;-61
2023/11/19 07:44:57;;;;;;;0.95;0.50;;;;;;;;;;5013741;28;20048;-62
2023/11/19 07:47:23;;;;;;;0.40;0.40;;;;;;;;;;5015772;28;20045;-62
2023/11/19 07:49:50;;;;;;;0.30;0.30;;;;;;;;;;5014955;28;20052;-61
2023/11/19 07:52:16;;;;;;;0.52;0.32;;;;;;;;;;5011409;28;20057;-62
2023/11/19 07:54:43;;;;;;;1.02;0.70;;;;;;;;;;5011510;28;20414;-62
2023/11/19 07:57:09;;;;;;;0.40;0.40;;;;;;;;;;5021974;28;20057;-58
2023/11/19 07:59:35;;;;;;;1.35;0.63;;;;;;;;;;5019425;28;20502;-58
2023/11/19 08:02:03;;;;;;;0.32;0.30;;;;;;;;;;5016463;28;20049;-58
2023/11/19 08:04:29;;;;;;;1.88;1.40;;;;;;;;;;5012759;28;20049;-58
2023/11/19 08:06:55;;;;;;;0.75;0.50;;;;;;;;;;5011995;28;20054;-58
2023/11/19 08:09:23;;;;;;;0.90;0.47;;;;;;;;;;5009278;28;20041;-57
2023/11/19 08:11:49;;;;;;;1.98;0.90;;;;;;;;;;5015072;28;20040;-57
2023/11/19 08:14:15;;;;;;;0.60;0.40;;;;;;;;;;5011305;28;20515;-58
2023/11/19 08:16:41;;;;;;;0.60;0.50;;;;;;;;;;5008025;28;20033;-59
2023/11/19 08:19:08;;;;;;;0.50;0.50;;;;;;;;;;5008188;28;20041;-58
2023/11/19 08:21:34;;;;;;;0.50;0.40;;;;;;;;;;5013312;28;20420;-58
2023/11/19 08:24:00;;;;;;;0.52;0.38;;;;;;;;;;5011511;28;20490;-59
2023/11/19 08:26:26;;;;;;;0.45;0.45;;;;;;;;;;5016463;28;20041;-59
2023/11/19 08:28:52;;;;;;;1.05;0.68;;;;;;;;;;5008879;28;20635;-58
2023/11/19 08:31:18;;;;;;;3.45;1.15;;;;;;;;;;5015957;28;20050;-58
2023/11/19 08:33:45;;;;;;;2.17;0.40;;;;;;;;;;4991030;28;20046;-58
2023/11/19 08:36:17;;;;;;;0.68;0.65;;;;;;;;;;5009465;28;20045;-58
2023/11/19 08:38:43;;;;;;;1.77;0.82;;;;;;;;;;5013285;28;20030;-58
2023/11/19 08:41:10;;;;;;;1.20;0.60;;;;;;;;;;4990253;28;20046;-59
2023/11/19 08:43:36;;;;;;;0.60;0.50;;;;;;;;;;5005762;28;20550;-60
2023/11/19 08:46:03;;;;;;;0.57;0.50;;;;;;;;;;5003905;28;20053;-59
2023/11/19 08:48:30;;;;;;;3.72;1.83;;;;;;;;;;5003629;28;20046;-59
2023/11/19 08:50:56;;;;;;;1.60;0.80;;;;;;;;;;5003046;28;20037;-59
2023/11/19 08:53:22;;;;;;;1.40;0.50;;;;;;;;;;5005731;28;20046;-59
2023/11/19 08:55:49;;;;;;;0.90;0.60;;;;;;;;;;5005369;28;20042;-59
2023/11/19 08:58:15;;;;;;;0.77;0.60;;;;;;;;;;5003590;28;20030;-60
2023/11/19 09:00:41;;;;;;;0.98;0.52;;;;;;;;;;5002037;28;20025;-58
2023/11/19 09:03:09;;;;;;;0.57;0.40;;;;;;;;;;5003416;28;20410;-58
2023/11/19 09:05:35;;;;;;;1.33;0.63;;;;;;;;;;5008028;28;20077;-59
2023/11/19 09:08:01;;;;;;;2.92;1.33;;;;;;;;;;4998117;28;20068;-60
2023/11/19 09:10:29;;;;;;;1.65;0.80;;;;;;;;;;5012763;28;20032;-58
2023/11/19 09:12:55;;;;;;;0.80;0.50;;;;;;;;;;5007610;28;20030;-58
2023/11/19 09:15:21;;;;;;;4.35;1.50;;;;;;;;;;5008027;28;20042;-58
2023/11/19 09:17:47;;;;;;;2.22;0.50;;;;;;;;;;4999302;28;20443;-58
2023/11/19 09:20:15;;;;;;;1.67;0.60;;;;;;;;;;4995215;28;20030;-61
2023/11/19 09:22:41;;;;;;;2.35;0.70;;;;;;;;;;5007555;28;20029;-56
2023/11/19 09:25:08;;;;;;;4.63;0.50;;;;;;;;;;4997053;28;20029;-56
2023/11/19 09:27:34;;;;;;;1.77;0.70;;;;;;;;;;5004611;28;20033;-56
2023/11/19 09:30:00;;;;;;;1.52;0.80;;;;;;;;;;5004740;28;20050;-58
2023/11/19 09:32:26;;;;;;;1.35;0.80;;;;;;;;;;4987429;28;20026;-57
2023/11/19 09:34:52;;;;;;;1.55;0.68;;;;;;;;;;5002787;28;20057;-58
2023/11/19 09:37:18;;;;;;;1.02;0.50;;;;;;;;;;5006642;28;20113;-57
2023/11/19 09:39:44;;;;;;;1.27;1.05;;;;;;;;;;4995218;28;20029;-57
2023/11/19 09:42:11;;;;;;;1.98;1.10;;;;;;;;;;4985148;28;20033;-58
2023/11/19 09:44:39;;;;;;;1.75;0.70;;;;;;;;;;5004554;28;20045;-59
2023/11/19 09:47:06;;;;;;;0.70;0.50;;;;;;;;;;5003234;28;20048;-58
2023/11/19 09:49:33;;;;;;;1.35;0.73;;;;;;;;;;5009544;28;20050;-57
2023/11/19 09:51:59;;;;;;;2.25;1.27;;;;;;;;;;5011974;28;20057;-58
2023/11/19 09:54:25;;;;;;;3.25;1.67;;;;;;;;;;5011319;28;20034;-60
2023/11/19 09:56:52;;;;;;;1.13;0.60;;;;;;;;;;5011163;28;20061;-60
2023/11/19 09:59:18;;;;;;;0.60;0.50;;;;;;;;;;5011593;28;20040;-60
2023/11/19 10:01:45;;;;;;;1.77;0.40;;;;;;;;;;5011175;28;20526;-62
2023/11/19 10:04:15;;;;;;;0.57;0.50;;;;;;;;;;5011646;28;20053;-59
2023/11/19 10:06:41;;;;;;;;;;;;;;;;;;5012331;28;20048;-58
2023/11/19 10:09:07;;;;;;;1.25;0.52;;;;;;;;;;5011673;28;19925;-58
2023/11/19 10:11:34;;;;;;;0.50;0.50;;;;;;;;;;5010980;28;20056;-59
2023/11/19 10:14:00;;;;;;;5.25;0.57;;;;;;;;;;5012498;28;20045;-61
2023/11/19 10:16:31;;;;;;;0.60;0.50;;;;;;;;;;5011682;28;20050;-59
2023/11/19 10:18:57;;;;;;;0.32;0.30;;;;;;;;;;5013309;28;20045;-58
2023/11/19 10:21:24;;;;;;;0.40;0.40;;;;;;;;;;5012474;28;20053;-59
2023/11/19 10:23:57;;;;;;;0.93;0.45;;;;;;;;;;5014886;28;20030;-59
2023/11/19 10:26:23;;;;;;;1.38;0.50;;;;;;;;;;5022292;28;20045;-59
2023/11/19 10:28:50;;;;;;;0.80;0.55;;;;;;;;;;5010970;28;20398;-58
2023/11/19 10:31:17;;;;;;;0.30;0.30;;;;;;;;;;5005751;28;20050;-60
2023/11/19 10:33:44;;;;;;;2.83;0.80;;;;;;;;;;5010863;28;20054;-58
2023/11/19 10:36:12;;;;;;;0.47;0.40;;;;;;;;;;5011691;28;20046;-58
2023/11/19 10:38:38;;;;;;;0.35;0.35;;;;;;;;;;5023346;28;20042;-59
2023/11/19 10:41:08;;;;;;;1.13;0.80;;;;;;;;;;5010254;28;20502;-60
2023/11/19 10:43:47;;;;;;;0.80;0.77;;;;;;;;;;5009651;28;20034;-58
2023/11/19 10:46:14;;;;;;;0.40;0.38;;;;;;;;;;5009787;28;20041;-58
2023/11/19 10:48:40;;;;;;;1.17;0.80;;;;;;;;;;5014175;28;20041;-59
2023/11/19 10:51:07;;;;;;;1.77;0.93;;;;;;;;;;5010027;28;20046;-61
2023/11/19 10:53:38;;;;;;;1.70;1.13;;;;;;;;;;5014340;28;20505;-59
2023/11/19 10:56:11;;;;;;;3.22;1.60;;;;;;;;;;5012256;28;20041;-59
2023/11/19 10:58:44;;;;;;;2.95;1.50;;;;;;;;;;5012451;28;20026;-59
2023/11/19 11:01:18;;;;;;;1.63;1.10;;;;;;;;;;5013305;28;20041;-59
2023/11/19 11:03:45;;;;;;;0.50;0.50;;;;;;;;;;5009969;28;20030;-59
2023/11/19 11:06:13;;;;;;;2.15;0.90;;;;;;;;;;5007169;28;20050;-60
2023/11/19 11:08:39;;;;;;;0.50;0.50;;;;;;;;;;5022147;28;20044;-60
2023/11/19 11:11:07;;;;;;;1.30;0.70;;;;;;;;;;5009575;28;20046;-59
2023/11/19 11:13:35;;;;;;;1.85;0.80;;;;;;;;;;5009030;28;20049;-59
2023/11/19 11:16:01;;;;;;;1.17;0.80;;;;;;;;;;5010142;28;20050;-59
2023/11/19 11:18:28;;;;;;;0.90;0.60;;;;;;;;;;5007217;28;20049;-60
2023/11/19 11:21:00;;;;;;;0.57;0.50;;;;;;;;;;5009287;28;20036;-59
2023/11/19 11:24:14;;;;;;;0.63;0.60;;;;;;;;;;5010825;28;20025;-59
2023/11/19 11:27:12;;;;;;;2.03;0.90;;;;;;;;;;5010152;28;20384;-60
2023/11/19 11:29:51;;;;;;;2.63;0.90;;;;;;;;;;5008023;28;20056;-61
2023/11/19 11:32:40;;;;;;;0.55;0.50;;;;;;;;;;5008742;28;20045;-61
2023/11/19 11:35:16;;;;;;;0.75;0.45;;;;;;;;;;5008432;28;20053;-61
2023/11/19 11:37:49;;;;;;;1.00;0.43;;;;;;;;;;5008463;28;20235;-62
2023/11/19 11:40:18;;;;;;;0.98;0.60;;;;;;;;;;5009458;28;20036;-61
2023/11/19 11:42:45;;;;;;;1.13;0.60;;;;;;;;;;5009181;28;20396;-59
2023/11/19 11:45:13;;;;;;;1.67;0.85;;;;;;;;;;5009625;28;20061;-62
2023/11/19 11:47:42;;;;;;;1.33;0.70;;;;;;;;;;5003712;28;20431;-59
2023/11/19 11:50:10;;;;;;;1.42;0.70;;;;;;;;;;5006636;28;20042;-63
2023/11/19 11:52:57;;;;;;;2.60;1.13;;;;;;;;;;5008524;28;20419;-63
2023/11/19 11:55:27;;;;;;;1.10;0.93;;;;;;;;;;5004545;28;20038;-62
2023/11/19 11:57:54;;;;;;;1.77;0.40;;;;;;;;;;5007897;28;20064;-61
2023/11/19 12:00:31;;;;;;;0.60;0.50;;;;;;;;;;5005747;28;20499;-60
2023/11/19 12:03:01;;;;;;;1.70;0.85;;;;;;;;;;5008552;28;20041;-61
2023/11/19 12:05:29;;;;;;;1.25;0.82;;;;;;;;;;5001194;28;20052;-59
2023/11/19 12:08:05;;;;;;;1.05;0.60;;;;;;;;;;5004087;28;20053;-59
2023/11/19 12:10:45;;;;;;;1.10;0.60;;;;;;;;;;5007477;28;20033;-59
2023/11/19 12:13:14;;;;;;;3.10;0.55;;;;;;;;;;5005746;28;20046;-60
2023/11/19 12:15:58;;;;;;;2.33;1.10;;;;;;;;;;5002293;28;20043;-60
2023/11/19 12:18:29;;;;;;;0.77;0.50;;;;;;;;;;5003752;28;20053;-59
2023/11/19 12:20:55;;;;;;;0.93;0.50;;;;;;;;;;5005710;28;20033;-59
2023/11/19 12:23:22;;;;;;;0.80;0.50;;;;;;;;;;5010001;28;20052;-59
2023/11/19 12:25:48;;;;;;;1.88;0.90;;;;;;;;;;5005750;28;20030;-59
2023/11/19 12:28:18;;;;;;;0.30;0.30;;;;;;;;;;5006834;28;20042;-59
2023/11/19 12:30:46;;;;;;;1.25;1.15;;;;;;;;;;4998274;28;20034;-59
2023/11/19 12:33:13;;;;;;;0.30;0.30;;;;;;;;;;5005472;28;20038;-59
2023/11/19 12:35:40;;;;;;;0.77;0.45;;;;;;;;;;5004627;28;20407;-59
2023/11/19 12:38:06;;;;;;;0.40;0.35;;;;;;;;;;5008032;28;20056;-59
2023/11/19 12:40:33;;;;;;;1.17;0.60;;;;;;;;;;5005030;28;20049;-60
2023/11/19 12:43:00;;;;;;;1.60;0.68;;;;;;;;;;5008107;28;20030;-60
2023/11/19 12:45:39;;;;;;;1.17;0.40;;;;;;;;;;4991987;28;20061;-59
2023/11/19 12:48:06;;;;;;;0.90;0.40;;;;;;;;;;4998373;28;20057;-58
2023/11/19 12:50:52;;;;;;;1.23;0.50;;;;;;;;;;5010483;28;20033;-57
2023/11/19 12:53:19;;;;;;;0.80;0.63;;;;;;;;;;5005311;28;20041;-58
2023/11/19 12:55:45;;;;;;;0.93;0.50;;;;;;;;;;5009120;28;20046;-58
2023/11/19 12:58:28;;;;;;;0.65;0.40;;;;;;;;;;5014648;28;20044;-57
2023/11/19 13:00:59;;;;;;;0.50;0.50;;;;;;;;;;5021007;28;20060;-60
2023/11/19 13:03:33;;;;;;;2.55;0.60;;;;;;;;;;5016957;28;20489;-58
2023/11/19 13:06:07;;;;;;;1.67;0.70;;;;;;;;;;4990966;28;20041;-59
2023/11/19 13:08:53;;;;;;;1.25;0.50;;;;;;;;;;5003164;28;20514;-58
2023/11/19 13:11:33;;;;;;;2.30;0.45;;;;;;;;;;5011912;28;20530;-58
2023/11/19 13:14:04;;;;;;;1.40;0.40;;;;;;;;;;5014507;28;20030;-60
2023/11/19 13:16:30;;;;;;;0.60;0.40;;;;;;;;;;5009354;28;20038;-60
2023/11/19 13:18:57;;;;;;;1.17;0.40;;;;;;;;;;5008424;28;20053;-57
2023/11/19 13:21:24;;;;;;;2.90;1.20;;;;;;;;;;5013869;28;20030;-60
2023/11/19 13:23:50;;;;;;;0.80;0.60;;;;;;;;;;5008713;28;20037;-59
2023/11/19 13:26:16;;;;;;;1.95;0.35;;;;;;;;;;5008444;28;20498;-60
2023/11/19 13:28:42;;;;;;;0.43;0.30;;;;;;;;;;5007371;28;20045;-59
2023/11/19 13:31:10;;;;;;;3.00;0.60;;;;;;;;;;5014352;28;20052;-59
2023/11/19 13:33:36;;;;;;;0.77;0.50;;;;;;;;;;5010213;28;20045;-58
2023/11/19 13:36:06;;;;;;;1.30;0.50;;;;;;;;;;5008306;28;20053;-59
2023/11/19 13:38:33;;;;;;;1.80;0.60;;;;;;;;;;5002285;28;20042;-59
2023/11/19 13:40:59;;;;;;;1.38;0.63;;;;;;;;;;5006575;28;20026;-58
2023/11/19 13:43:27;;;;;;;1.95;0.60;;;;;;;;;;5008857;28;20040;-59
2023/11/19 13:45:55;;;;;;;1.33;0.57;;;;;;;;;;5012084;28;20048;-59
2023/11/19 13:48:22;;;;;;;0.82;0.50;;;;;;;;;;5007227;28;20045;-59
2023/11/19 13:50:48;;;;;;;1.42;0.73;;;;;;;;;;5006784;28;20026;-58
2023/11/19 13:53:14;;;;;;;0.88;0.57;;;;;;;;;;5006673;28;20053;-58
2023/11/19 13:55:42;;;;;;;1.40;0.68;;;;;;;;;;5016974;28;20041;-58
2023/11/19 13:58:08;;;;;;;2.47;0.90;;;;;;;;;;5007208;28;20049;-58
2023/11/19 14:00:37;;;;;;;1.48;0.82;;;;;;;;;;5013409;28;20044;-58
2023/11/19 14:03:04;;;;;;;2.08;0.75;;;;;;;;;;5012021;28;20057;-58
2023/11/19 14:05:30;;;;;;;2.47;0.70;;;;;;;;;;5006947;28;20053;-59
2023/11/19 14:07:56;;;;;;;2.17;0.98;;;;;;;;;;5013603;28;20040;-59
2023/11/19 14:10:23;;;;;;;4.55;1.30;;;;;;;;;;5006178;28;20053;-58
2023/11/19 14:12:52;;;;;;;2.65;1.10;;;;;;;;;;5010140;28;20046;-58
2023/11/19 14:15:18;;;;;;;1.42;0.70;;;;;;;;;;5003715;28;20057;-58
2023/11/19 14:17:45;;;;;;;2.97;1.20;;;;;;;;;;5010568;28;20053;-59
2023/11/19 14:20:15;;;;;;;1.63;1.00;;;;;;;;;;5004036;28;20034;-59
2023/11/19 14:22:42;;;;;;;3.22;0.60;;;;;;;;;;5007432;28;20049;-59
2023/11/19 14:25:10;;;;;;;2.78;1.40;;;;;;;;;;5013282;28;20053;-58
2023/11/19 14:27:37;;;;;;;3.90;2.10;;;;;;;;;;5004412;28;20038;-57
2023/11/19 14:30:08;;;;;;;3.85;1.90;;;;;;;;;;5007113;28;20521;-58
2023/11/19 14:32:38;;;;;;;5.28;2.05;;;;;;;;;;5005333;28;20053;-58
2023/11/19 14:35:06;;;;;;;1.83;0.80;;;;;;;;;;5014666;28;20049;-60
2023/11/19 14:37:32;;;;;;;3.42;1.48;;;;;;;;;;5021208;28;20041;-58
2023/11/19 14:39:59;;;;;;;2.22;1.08;;;;;;;;;;5014530;28;20045;-58
2023/11/19 14:42:25;;;;;;;2.65;1.10;;;;;;;;;;5011774;28;20057;-59
2023/11/19 14:44:55;;;;;;;3.42;1.45;;;;;;;;;;4998942;28;20045;-61
2023/11/19 14:47:22;;;;;;;2.92;1.10;;;;;;;;;;5005387;28;20053;-58